Time;durP1;ratioP1;P1;durP2;ratioP2;P2;SDS_P1;SDS_P2;PMS_P1;PMS_P2;Temp;Humidity;BMP_temperature;BMP_pressure;BME280_temperature;BME280_humidity;BME280_pressure;Samples;Min_cycle;Max_cycle;Signal;HPM_P1;HPM_P2
2024/01/21 00:02:14;;;;;;;9.10;3.60;;;0.30;99.90;;;;;;5014798;28;20053;-73
2024/01/21 00:04:40;;;;;;;11.20;4.05;;;0.20;99.90;;;;;;5016616;28;20441;-72
2024/01/21 00:07:05;;;;;;;7.82;3.58;;;0.30;99.90;;;;;;5009714;28;20058;-72
2024/01/21 00:09:31;;;;;;;9.93;2.80;;;0.30;99.90;;;;;;5014598;28;20064;-73
2024/01/21 00:11:56;;;;;;;7.45;3.08;;;0.30;99.90;;;;;;5011853;28;20044;-73
2024/01/21 00:14:22;;;;;;;6.82;2.50;;;0.40;99.90;;;;;;5010777;28;20506;-73
2024/01/21 00:16:47;;;;;;;4.90;2.65;;;0.40;99.90;;;;;;5022311;28;20044;-73
2024/01/21 00:19:13;;;;;;;11.93;3.03;;;0.50;99.90;;;;;;5020269;28;20106;-73
2024/01/21 00:21:38;;;;;;;9.18;3.85;;;0.50;99.90;;;;;;5034811;28;21262;-73
2024/01/21 00:24:04;;;;;;;5.88;2.72;;;0.60;99.90;;;;;;5034334;28;20040;-73
2024/01/21 00:26:30;;;;;;;5.68;2.58;;;0.50;99.90;;;;;;5034286;28;20033;-73
2024/01/21 00:29:00;;;;;;;6.93;2.42;;;0.60;99.90;;;;;;5029002;28;20040;-73
2024/01/21 00:31:29;;;;;;;7.57;2.75;;;0.70;99.90;;;;;;5019174;28;20021;-72
2024/01/21 00:33:54;;;;;;;8.63;2.10;;;0.70;99.90;;;;;;5011087;28;20041;-72
2024/01/21 00:36:20;;;;;;;7.63;2.55;;;0.70;99.90;;;;;;5021706;28;20033;-72
2024/01/21 00:38:45;;;;;;;5.60;2.35;;;0.80;99.90;;;;;;5018400;28;20045;-72
2024/01/21 00:41:15;;;;;;;5.30;2.38;;;0.80;99.90;;;;;;5013860;28;20040;-72
2024/01/21 00:43:41;;;;;;;4.63;2.22;;;0.80;99.90;;;;;;5023340;28;20379;-72
2024/01/21 00:46:07;;;;;;;9.82;2.45;;;0.80;99.90;;;;;;5012980;28;20037;-72
2024/01/21 00:48:33;;;;;;;6.72;2.25;;;0.90;99.90;;;;;;5017534;28;20030;-72
2024/01/21 00:50:59;;;;;;;5.53;2.70;;;0.90;99.90;;;;;;5020266;28;20070;-72
2024/01/21 00:53:24;;;;;;;4.75;2.10;;;0.90;99.90;;;;;;5009468;28;20176;-72
2024/01/21 00:55:50;;;;;;;5.35;2.00;;;0.90;99.90;;;;;;5022149;28;20088;-75
2024/01/21 00:58:15;;;;;;;7.38;2.00;;;1.00;99.90;;;;;;5022178;28;20041;-72
2024/01/21 01:00:41;;;;;;;5.53;1.98;;;1.00;99.90;;;;;;5020945;28;20049;-73
2024/01/21 01:03:06;;;;;;;5.38;1.67;;;1.00;99.90;;;;;;5015116;28;20041;-73
2024/01/21 01:05:32;;;;;;;4.97;1.95;;;1.00;99.90;;;;;;5011977;28;20037;-73
2024/01/21 01:07:57;;;;;;;7.85;2.85;;;1.00;99.90;;;;;;5017134;28;20045;-73
2024/01/21 01:10:23;;;;;;;3.50;1.40;;;1.00;99.90;;;;;;5016539;28;20394;-73
2024/01/21 01:12:49;;;;;;;6.45;2.15;;;1.00;99.90;;;;;;5012658;28;20672;-72
2024/01/21 01:15:15;;;;;;;3.85;1.45;;;1.00;99.90;;;;;;5009192;28;20509;-73
2024/01/21 01:17:40;;;;;;;5.43;1.83;;;1.00;99.90;;;;;;5010018;28;20057;-72
2024/01/21 01:20:07;;;;;;;4.22;1.98;;;1.10;99.90;;;;;;5020459;28;20042;-73
2024/01/21 01:22:33;;;;;;;4.78;1.55;;;1.10;99.90;;;;;;5015731;28;20079;-72
2024/01/21 01:24:59;;;;;;;4.22;1.75;;;1.10;99.90;;;;;;5017501;28;20026;-73
2024/01/21 01:27:24;;;;;;;3.83;1.17;;;1.10;99.90;;;;;;5013021;28;20603;-73
2024/01/21 01:29:53;;;;;;;6.80;2.28;;;1.10;99.90;;;;;;5006521;28;20561;-73
2024/01/21 01:32:19;;;;;;;6.00;1.40;;;1.00;99.90;;;;;;5012689;28;20088;-73
2024/01/21 01:34:45;;;;;;;2.03;1.20;;;1.10;99.90;;;;;;5011219;28;20076;-72
2024/01/21 01:37:11;;;;;;;3.92;1.50;;;1.00;99.90;;;;;;5009203;28;20065;-73
2024/01/21 01:39:37;;;;;;;5.80;1.67;;;1.00;99.90;;;;;;5004950;28;20045;-72
2024/01/21 01:42:02;;;;;;;4.47;1.95;;;1.00;99.90;;;;;;5003740;28;20050;-72
2024/01/21 01:44:28;;;;;;;3.03;1.45;;;0.90;99.90;;;;;;5010887;28;20136;-73
2024/01/21 01:46:54;;;;;;;4.85;2.03;;;0.80;99.90;;;;;;5010701;28;20041;-73
2024/01/21 01:49:20;;;;;;;4.15;1.50;;;0.80;99.90;;;;;;5009013;28;20119;-73
2024/01/21 01:51:46;;;;;;;6.10;1.80;;;0.80;99.90;;;;;;5019423;28;20102;-73
2024/01/21 01:54:12;;;;;;;3.28;1.40;;;0.70;99.90;;;;;;5015168;28;20489;-73
2024/01/21 01:56:39;;;;;;;3.05;1.23;;;0.80;99.90;;;;;;5014637;28;20174;-73
2024/01/21 01:59:09;;;;;;;3.30;1.30;;;0.80;99.90;;;;;;5006154;28;20041;-73
2024/01/21 02:01:37;;;;;;;2.53;1.20;;;0.80;99.90;;;;;;5010721;28;20034;-73
2024/01/21 02:04:04;;;;;;;3.35;1.52;;;0.80;99.90;;;;;;5005654;28;20057;-72
2024/01/21 02:06:30;;;;;;;4.35;2.08;;;0.80;99.90;;;;;;5005246;28;20033;-72
2024/01/21 02:08:55;;;;;;;5.40;1.25;;;0.90;99.90;;;;;;5012137;28;20046;-73
2024/01/21 02:11:21;;;;;;;6.40;1.75;;;0.90;99.90;;;;;;5006251;28;20030;-72
2024/01/21 02:13:46;;;;;;;4.85;1.40;;;0.80;99.90;;;;;;5010910;28;20149;-73
2024/01/21 02:16:12;;;;;;;3.85;1.20;;;0.80;99.90;;;;;;5015055;28;20037;-72
2024/01/21 02:18:38;;;;;;;5.47;1.50;;;0.80;99.90;;;;;;5010937;28;20042;-72
2024/01/21 02:21:04;;;;;;;2.70;1.17;;;0.90;99.90;;;;;;5017067;28;20021;-73
2024/01/21 02:23:30;;;;;;;6.97;1.23;;;0.90;99.90;;;;;;5007507;28;20907;-73
2024/01/21 02:25:56;;;;;;;3.40;1.33;;;0.90;99.90;;;;;;5011874;28;20033;-73
2024/01/21 02:28:21;;;;;;;3.88;1.27;;;0.90;99.90;;;;;;5008861;28;20691;-73
2024/01/21 02:30:47;;;;;;;3.72;1.05;;;0.90;99.90;;;;;;5010329;28;20153;-72
2024/01/21 02:33:13;;;;;;;3.25;1.40;;;0.90;99.90;;;;;;5011847;28;20478;-73
2024/01/21 02:35:38;;;;;;;3.20;1.05;;;0.90;99.90;;;;;;5013907;28;20042;-73
2024/01/21 02:38:04;;;;;;;2.30;1.05;;;0.90;99.90;;;;;;5012450;28;20046;-72
2024/01/21 02:40:30;;;;;;;3.17;1.55;;;0.90;99.90;;;;;;5009316;28;20033;-73
2024/01/21 02:42:55;;;;;;;5.55;1.17;;;0.90;99.90;;;;;;5010412;28;20033;-73
2024/01/21 02:45:21;;;;;;;3.30;1.08;;;0.90;99.90;;;;;;5010172;28;20116;-72
2024/01/21 02:47:47;;;;;;;4.28;1.15;;;1.00;99.90;;;;;;5009238;28;20052;-73
2024/01/21 02:50:12;;;;;;;4.65;1.23;;;0.90;99.90;;;;;;5014246;28;20084;-73
2024/01/21 02:52:38;;;;;;;3.75;0.98;;;1.00;99.90;;;;;;5017486;28;20037;-72
2024/01/21 02:55:03;;;;;;;3.95;1.88;;;0.90;99.90;;;;;;5009001;28;20133;-73
2024/01/21 02:57:29;;;;;;;3.70;1.27;;;0.90;99.90;;;;;;5026690;28;20085;-72
2024/01/21 02:59:55;;;;;;;4.43;1.40;;;0.90;99.90;;;;;;5012423;28;20613;-73
2024/01/21 03:02:20;;;;;;;2.15;0.88;;;0.90;99.90;;;;;;5015289;28;20461;-73
2024/01/21 03:04:46;;;;;;;2.80;1.25;;;0.90;99.90;;;;;;5016053;28;20491;-72
2024/01/21 03:07:11;;;;;;;3.70;1.20;;;0.90;99.90;;;;;;5015534;28;20037;-73
2024/01/21 03:09:37;;;;;;;3.08;1.10;;;0.90;99.90;;;;;;5015554;28;20494;-72
2024/01/21 03:12:02;;;;;;;3.42;0.85;;;0.90;99.90;;;;;;5012841;28;20034;-73
2024/01/21 03:14:28;;;;;;;5.82;2.13;;;0.90;99.90;;;;;;5015597;28;20056;-73
2024/01/21 03:16:53;;;;;;;3.05;0.95;;;0.90;99.90;;;;;;5024087;28;20030;-73
2024/01/21 03:19:19;;;;;;;2.40;0.95;;;0.90;99.90;;;;;;5018292;28;20041;-72
2024/01/21 03:21:44;;;;;;;3.95;1.30;;;0.90;99.90;;;;;;5006712;28;20092;-73
2024/01/21 03:24:10;;;;;;;3.28;1.30;;;0.90;99.90;;;;;;5016567;28;20042;-73
2024/01/21 03:26:36;;;;;;;3.45;1.30;;;0.90;99.90;;;;;;5019057;28;20045;-73
2024/01/21 03:29:01;;;;;;;3.47;1.40;;;1.00;99.90;;;;;;5015062;28;20037;-72
2024/01/21 03:31:28;;;;;;;3.85;1.48;;;1.00;99.90;;;;;;5014645;28;20072;-73
2024/01/21 03:33:53;;;;;;;3.20;1.20;;;1.00;99.90;;;;;;5014884;28;20034;-73
2024/01/21 03:36:19;;;;;;;2.22;1.25;;;1.00;99.90;;;;;;5018262;28;20037;-72
2024/01/21 03:38:46;;;;;;;5.38;1.50;;;1.10;99.90;;;;;;5014155;28;20430;-72
2024/01/21 03:41:12;;;;;;;2.58;1.17;;;1.00;99.90;;;;;;5013992;28;20037;-72
2024/01/21 03:43:37;;;;;;;8.50;1.55;;;1.10;99.90;;;;;;5015667;28;20494;-73
2024/01/21 03:46:03;;;;;;;3.33;1.63;;;1.00;99.90;;;;;;5011472;28;20129;-73
2024/01/21 03:48:29;;;;;;;3.83;1.55;;;1.10;99.90;;;;;;5008900;28;20093;-72
2024/01/21 03:50:54;;;;;;;4.50;1.50;;;1.10;99.90;;;;;;5019090;28;20042;-72
2024/01/21 03:53:20;;;;;;;3.45;1.50;;;1.00;99.90;;;;;;5013758;28;20033;-73
2024/01/21 03:55:46;;;;;;;2.53;0.80;;;1.00;99.90;;;;;;5016724;28;20042;-73
2024/01/21 03:58:11;;;;;;;3.25;1.45;;;1.10;99.90;;;;;;5010064;28;20044;-73
2024/01/21 04:00:37;;;;;;;3.38;0.93;;;1.10;99.90;;;;;;5009821;28;20033;-73
2024/01/21 04:03:02;;;;;;;3.67;1.42;;;1.10;99.90;;;;;;5027398;28;20040;-73
2024/01/21 04:05:28;;;;;;;3.92;1.65;;;1.10;99.90;;;;;;5023570;28;20498;-72
2024/01/21 04:07:54;;;;;;;5.10;1.75;;;1.10;99.90;;;;;;5009873;28;20038;-73
2024/01/21 04:10:19;;;;;;;5.63;2.25;;;1.10;99.90;;;;;;5018415;28;20433;-73
2024/01/21 04:12:45;;;;;;;5.80;1.80;;;1.10;99.90;;;;;;5015237;28;20070;-73
2024/01/21 04:15:10;;;;;;;3.45;1.52;;;1.10;99.90;;;;;;5016270;28;20108;-72
2024/01/21 04:17:36;;;;;;;2.45;1.42;;;1.10;99.90;;;;;;5017440;28;20040;-72
2024/01/21 04:20:02;;;;;;;4.70;2.05;;;1.20;99.90;;;;;;5031098;28;20505;-72
2024/01/21 04:22:27;;;;;;;3.28;1.40;;;1.20;99.90;;;;;;5016763;28;20029;-73
2024/01/21 04:24:53;;;;;;;4.80;1.40;;;1.20;99.90;;;;;;5010830;28;20441;-73
2024/01/21 04:27:19;;;;;;;4.30;1.50;;;1.20;99.90;;;;;;5015730;28;20068;-72
2024/01/21 04:29:44;;;;;;;3.78;2.00;;;1.30;99.90;;;;;;5018566;28;20428;-73
2024/01/21 04:32:10;;;;;;;3.00;1.45;;;1.30;99.90;;;;;;5012666;28;20030;-73
2024/01/21 04:34:35;;;;;;;3.95;1.38;;;1.30;99.90;;;;;;5021817;28;20581;-73
2024/01/21 04:37:01;;;;;;;5.10;1.75;;;1.40;99.90;;;;;;5012973;28;20038;-73
2024/01/21 04:39:26;;;;;;;3.92;2.10;;;1.40;99.90;;;;;;5010761;28;20088;-72
2024/01/21 04:41:52;;;;;;;3.75;1.50;;;1.50;99.90;;;;;;5016608;28;20045;-73
2024/01/21 04:44:18;;;;;;;6.45;1.92;;;1.50;99.90;;;;;;5008878;28;20763;-72
2024/01/21 04:46:43;;;;;;;4.70;1.90;;;1.50;99.90;;;;;;5019203;28;20038;-73
2024/01/21 04:49:09;;;;;;;6.90;2.00;;;1.50;99.90;;;;;;5017426;28;20045;-73
2024/01/21 04:51:36;;;;;;;4.68;1.92;;;1.60;99.90;;;;;;5016787;28;20482;-73
2024/01/21 04:54:02;;;;;;;3.22;1.42;;;1.60;99.90;;;;;;5008459;28;20099;-73
2024/01/21 04:56:27;;;;;;;4.97;1.95;;;1.60;99.90;;;;;;5011773;28;20038;-72
2024/01/21 04:58:53;;;;;;;5.95;2.00;;;1.70;99.90;;;;;;5009366;28;20065;-74
2024/01/21 05:01:22;;;;;;;5.00;1.90;;;1.60;99.90;;;;;;5010161;28;20445;-73
2024/01/21 05:03:47;;;;;;;2.05;1.25;;;1.70;99.90;;;;;;5022737;28;20401;-73
2024/01/21 05:06:13;;;;;;;5.13;1.98;;;1.70;99.90;;;;;;5005203;28;20038;-73
2024/01/21 05:08:39;;;;;;;4.60;2.08;;;1.70;99.90;;;;;;5006292;28;20029;-72
2024/01/21 05:11:04;;;;;;;4.35;1.92;;;1.70;99.90;;;;;;5005278;28;20030;-72
2024/01/21 05:13:30;;;;;;;5.50;1.67;;;1.70;99.90;;;;;;5011445;28;20535;-73
2024/01/21 05:15:55;;;;;;;4.38;1.58;;;1.70;99.90;;;;;;5008861;28;20042;-73
2024/01/21 05:18:23;;;;;;;3.90;1.70;;;1.70;99.90;;;;;;5014182;28;20034;-73
2024/01/21 05:20:48;;;;;;;5.80;2.35;;;1.70;99.90;;;;;;5011299;28;20124;-73
2024/01/21 05:23:14;;;;;;;4.88;1.92;;;1.70;99.90;;;;;;5013904;28;20040;-72
2024/01/21 05:25:39;;;;;;;4.60;1.83;;;1.70;99.90;;;;;;5012277;28;20509;-73
2024/01/21 05:28:05;;;;;;;5.38;2.33;;;1.60;99.90;;;;;;5008473;28;20034;-73
2024/01/21 05:30:30;;;;;;;4.40;1.52;;;1.60;99.90;;;;;;5013656;28;20543;-72
2024/01/21 05:32:56;;;;;;;8.25;2.05;;;1.60;99.90;;;;;;5006208;28;20092;-74
2024/01/21 05:35:24;;;;;;;7.25;2.63;;;1.60;99.90;;;;;;5011031;28;20034;-72
2024/01/21 05:37:50;;;;;;;3.72;1.85;;;1.60;99.90;;;;;;5007598;28;20042;-73
2024/01/21 05:40:16;;;;;;;8.10;1.75;;;1.60;99.90;;;;;;5013530;28;20100;-73
2024/01/21 05:42:41;;;;;;;4.63;2.10;;;1.60;99.90;;;;;;5011117;28;20514;-72
2024/01/21 05:45:08;;;;;;;8.55;2.30;;;1.60;99.90;;;;;;5011430;28;20022;-72
2024/01/21 05:47:33;;;;;;;3.80;1.50;;;1.60;99.90;;;;;;5008498;28;20121;-72
2024/01/21 05:49:59;;;;;;;8.57;2.00;;;1.60;99.90;;;;;;5008600;28;20828;-72
2024/01/21 05:52:25;;;;;;;6.85;2.17;;;1.60;99.90;;;;;;5013229;28;20038;-72
2024/01/21 05:54:50;;;;;;;6.97;1.85;;;1.60;99.90;;;;;;5017598;28;20044;-72
2024/01/21 05:57:16;;;;;;;7.07;2.17;;;1.60;99.90;;;;;;5011098;28;20092;-73
2024/01/21 05:59:41;;;;;;;4.55;2.22;;;1.60;99.90;;;;;;5013226;28;20083;-73
2024/01/21 06:02:10;;;;;;;4.97;2.03;;;1.70;99.90;;;;;;5008650;28;20041;-73
2024/01/21 06:04:40;;;;;;;4.85;2.28;;;1.70;99.90;;;;;;5005152;28;20104;-72
2024/01/21 06:07:06;;;;;;;4.22;2.00;;;1.70;99.90;;;;;;5006916;28;20030;-73
2024/01/21 06:09:31;;;;;;;7.50;1.92;;;1.80;99.90;;;;;;5016040;28;20038;-73
2024/01/21 06:11:57;;;;;;;6.60;2.25;;;1.70;99.90;;;;;;5010574;28;20481;-73
2024/01/21 06:14:22;;;;;;;11.43;2.30;;;1.80;99.90;;;;;;5006161;28;20165;-73
2024/01/21 06:16:48;;;;;;;6.47;2.25;;;1.80;99.90;;;;;;5014080;28;20183;-73
2024/01/21 06:19:13;;;;;;;7.38;1.75;;;1.80;99.90;;;;;;5011681;28;20486;-73
2024/01/21 06:21:43;;;;;;;4.60;1.52;;;1.90;99.90;;;;;;5012088;28;20029;-73
2024/01/21 06:24:09;;;;;;;4.65;1.90;;;1.90;99.90;;;;;;5013341;28;20033;-73
2024/01/21 06:26:37;;;;;;;5.60;2.03;;;1.90;99.90;;;;;;5005295;28;20486;-73
2024/01/21 06:29:04;;;;;;;4.90;2.17;;;1.90;99.90;;;;;;5015599;28;20101;-72
2024/01/21 06:31:29;;;;;;;7.47;2.05;;;1.90;99.90;;;;;;5016952;28;20497;-73
2024/01/21 06:33:55;;;;;;;3.20;1.60;;;1.90;99.90;;;;;;5010730;28;20068;-73
2024/01/21 06:36:22;;;;;;;6.40;1.88;;;1.90;99.90;;;;;;5013596;28;20120;-72
2024/01/21 06:38:48;;;;;;;8.07;2.78;;;2.00;99.90;;;;;;5010162;28;20096;-73
2024/01/21 06:41:15;;;;;;;5.03;2.05;;;1.90;99.90;;;;;;5013094;28;20037;-73
2024/01/21 06:43:40;;;;;;;4.47;2.00;;;1.90;99.90;;;;;;5011427;28;20073;-72
2024/01/21 06:46:07;;;;;;;10.95;2.25;;;2.00;99.90;;;;;;5009820;28;20120;-73
2024/01/21 06:48:32;;;;;;;3.83;1.80;;;2.00;99.90;;;;;;5005741;28;20466;-72
2024/01/21 06:50:58;;;;;;;3.50;1.70;;;2.00;99.90;;;;;;5008392;28;20063;-73
2024/01/21 06:53:24;;;;;;;4.22;2.17;;;2.00;99.90;;;;;;5011188;28;20042;-73
2024/01/21 06:55:49;;;;;;;5.60;2.17;;;2.00;99.90;;;;;;5007897;28;20054;-73
2024/01/21 06:58:15;;;;;;;6.82;2.25;;;2.00;99.90;;;;;;5013644;28;20121;-72
2024/01/21 07:00:41;;;;;;;4.18;2.00;;;2.00;99.90;;;;;;5013674;28;20096;-73
2024/01/21 07:03:07;;;;;;;5.88;2.38;;;2.00;99.90;;;;;;5012921;28;20144;-73
2024/01/21 07:05:33;;;;;;;6.78;2.05;;;2.00;99.90;;;;;;5011255;28;20037;-73
2024/01/21 07:07:58;;;;;;;5.13;2.00;;;2.00;99.90;;;;;;5012232;28;20044;-73
2024/01/21 07:10:24;;;;;;;4.78;2.47;;;2.00;99.90;;;;;;5018024;28;20033;-73
2024/01/21 07:12:49;;;;;;;6.63;2.42;;;2.00;99.90;;;;;;5003613;28;20985;-73
2024/01/21 07:15:15;;;;;;;4.72;2.28;;;2.00;99.90;;;;;;5005793;28;20505;-72
2024/01/21 07:17:41;;;;;;;4.18;1.98;;;2.00;99.90;;;;;;5009016;28;20513;-73
2024/01/21 07:20:10;;;;;;;7.40;1.92;;;2.00;99.90;;;;;;5016535;28;20041;-73
2024/01/21 07:22:36;;;;;;;4.00;1.88;;;1.90;99.90;;;;;;5010681;28;20037;-73
2024/01/21 07:25:02;;;;;;;4.32;1.88;;;1.90;99.90;;;;;;5008792;28;20084;-73
2024/01/21 07:27:27;;;;;;;6.45;2.60;;;1.90;99.90;;;;;;5021256;28;20406;-73
2024/01/21 07:29:53;;;;;;;5.60;1.80;;;1.90;99.90;;;;;;5007358;28;20072;-72
2024/01/21 07:32:18;;;;;;;4.72;2.15;;;1.90;99.90;;;;;;5007158;28;20045;-73
2024/01/21 07:34:44;;;;;;;4.63;2.00;;;1.90;99.90;;;;;;5010353;28;20057;-73
2024/01/21 07:37:11;;;;;;;6.75;2.58;;;1.90;99.90;;;;;;5011399;28;20030;-73
2024/01/21 07:39:36;;;;;;;3.45;1.50;;;2.00;99.90;;;;;;5013984;28;20033;-73
2024/01/21 07:42:02;;;;;;;5.20;1.98;;;2.00;99.90;;;;;;5009701;28;20040;-73
2024/01/21 07:44:28;;;;;;;5.30;1.92;;;2.00;99.90;;;;;;5013479;28;20128;-73
2024/01/21 07:46:54;;;;;;;5.40;2.28;;;2.10;99.90;;;;;;5012082;28;20061;-73
2024/01/21 07:49:20;;;;;;;4.93;1.83;;;2.10;99.90;;;;;;5016713;28;20120;-72
2024/01/21 07:51:46;;;;;;;5.07;1.98;;;2.10;99.90;;;;;;5020654;28;20469;-72
2024/01/21 07:54:12;;;;;;;3.60;1.88;;;2.20;99.90;;;;;;5016183;28;20045;-73
2024/01/21 07:56:38;;;;;;;5.88;2.35;;;2.20;99.90;;;;;;5022397;28;20096;-72
2024/01/21 07:59:03;;;;;;;5.47;2.03;;;2.20;99.90;;;;;;5021854;28;20501;-72
2024/01/21 08:01:29;;;;;;;10.02;2.53;;;2.20;99.90;;;;;;5011690;28;20042;-73
2024/01/21 08:03:54;;;;;;;4.15;1.73;;;2.20;99.90;;;;;;5007229;28;20085;-73
2024/01/21 08:06:20;;;;;;;5.57;1.80;;;2.30;99.90;;;;;;5008091;28;20041;-72
2024/01/21 08:08:46;;;;;;;4.93;2.35;;;2.40;99.90;;;;;;5011003;28;20751;-73
2024/01/21 08:11:12;;;;;;;6.68;2.30;;;2.40;99.90;;;;;;5018811;28;20981;-73
2024/01/21 08:13:37;;;;;;;4.32;2.05;;;2.40;99.90;;;;;;5012868;28;20066;-72
2024/01/21 08:16:03;;;;;;;6.28;2.25;;;2.50;99.90;;;;;;5010173;28;20036;-74
2024/01/21 08:18:29;;;;;;;5.75;2.53;;;2.50;99.90;;;;;;5007886;28;20109;-73
2024/01/21 08:20:54;;;;;;;5.22;2.30;;;2.50;99.90;;;;;;5013908;28;20029;-73
2024/01/21 08:23:20;;;;;;;6.47;2.33;;;2.60;99.90;;;;;;5005108;28;20412;-73
2024/01/21 08:25:45;;;;;;;5.85;1.75;;;2.60;99.90;;;;;;5012352;28;20512;-73
2024/01/21 08:28:11;;;;;;;4.07;2.05;;;2.60;99.90;;;;;;5005548;28;21118;-73
2024/01/21 08:30:36;;;;;;;6.88;2.15;;;2.70;99.90;;;;;;5017281;28;20030;-72
2024/01/21 08:33:02;;;;;;;3.88;2.10;;;2.60;99.90;;;;;;5005633;28;20034;-73
2024/01/21 08:35:28;;;;;;;5.00;2.25;;;2.70;99.90;;;;;;5011106;28;20092;-71
2024/01/21 08:37:54;;;;;;;4.95;2.15;;;2.70;99.90;;;;;;5008863;28;20108;-73
2024/01/21 08:40:20;;;;;;;5.32;1.92;;;2.80;99.90;;;;;;5014458;28;20034;-72
2024/01/21 08:42:45;;;;;;;9.48;3.88;;;2.80;99.90;;;;;;5016299;28;20401;-72
2024/01/21 08:45:11;;;;;;;4.72;2.10;;;2.90;99.90;;;;;;5006511;28;20034;-72
2024/01/21 08:47:38;;;;;;;5.03;2.20;;;2.90;99.90;;;;;;5014027;28;20038;-72
2024/01/21 08:50:04;;;;;;;5.05;2.40;;;2.90;99.90;;;;;;5018989;28;20029;-72
2024/01/21 08:52:29;;;;;;;6.90;2.17;;;2.90;99.90;;;;;;5014526;28;20137;-72
2024/01/21 08:54:55;;;;;;;6.20;2.22;;;3.00;99.90;;;;;;5014673;28;20112;-73
2024/01/21 08:57:21;;;;;;;7.53;2.47;;;2.90;99.90;;;;;;5010328;28;20104;-72
2024/01/21 08:59:46;;;;;;;7.63;1.83;;;2.90;99.90;;;;;;5016450;28;20057;-72
2024/01/21 09:02:12;;;;;;;7.65;2.53;;;2.90;99.90;;;;;;5008941;28;20116;-72
2024/01/21 09:04:40;;;;;;;6.85;2.97;;;2.90;99.90;;;;;;5015238;28;20044;-72
2024/01/21 09:07:06;;;;;;;6.47;2.10;;;2.90;99.90;;;;;;5016346;28;20179;-73
2024/01/21 09:09:33;;;;;;;7.53;2.67;;;2.90;99.90;;;;;;5010009;28;20512;-73
2024/01/21 09:11:59;;;;;;;6.57;2.65;;;3.00;99.90;;;;;;5008016;28;20041;-73
2024/01/21 09:14:25;;;;;;;3.70;2.03;;;3.00;99.90;;;;;;5013600;28;20030;-73
2024/01/21 09:16:50;;;;;;;7.47;1.92;;;3.00;99.90;;;;;;5008503;28;20571;-71
2024/01/21 09:19:16;;;;;;;4.47;1.88;;;3.10;99.90;;;;;;5019767;28;20041;-74
2024/01/21 09:21:42;;;;;;;4.32;2.20;;;3.10;99.90;;;;;;5015210;28;20855;-73
2024/01/21 09:24:07;;;;;;;5.07;2.78;;;3.10;99.90;;;;;;5011866;28;20041;-72
2024/01/21 09:26:34;;;;;;;7.38;2.45;;;3.10;99.90;;;;;;5009873;28;20037;-72
2024/01/21 09:28:59;;;;;;;4.13;2.20;;;3.10;99.90;;;;;;5007733;28;20402;-73
2024/01/21 09:31:25;;;;;;;4.47;2.10;;;3.20;99.90;;;;;;5019344;28;20038;-74
2024/01/21 09:33:51;;;;;;;4.72;1.95;;;3.20;99.90;;;;;;5004730;28;20046;-74
2024/01/21 09:36:16;;;;;;;4.78;2.40;;;3.20;99.90;;;;;;5006889;28;20065;-73
2024/01/21 09:38:42;;;;;;;6.88;2.50;;;3.30;99.90;;;;;;5008186;28;20057;-74
2024/01/21 09:41:19;;;;;;;6.50;2.45;;;3.30;99.90;;;;;;5016445;28;20038;-73
2024/01/21 09:43:45;;;;;;;5.03;2.30;;;3.40;99.90;;;;;;5005102;28;20045;-73
2024/01/21 09:46:12;;;;;;;9.02;2.30;;;3.40;99.90;;;;;;5008895;28;21157;-73
2024/01/21 09:48:38;;;;;;;5.68;2.30;;;3.40;99.90;;;;;;5009979;28;20037;-73
2024/01/21 09:51:05;;;;;;;5.43;2.72;;;3.50;99.90;;;;;;5006764;28;20041;-73
2024/01/21 09:53:32;;;;;;;3.97;2.28;;;3.50;99.90;;;;;;5011676;28;20036;-73
2024/01/21 09:56:04;;;;;;;5.30;2.22;;;3.50;99.90;;;;;;5009874;28;20052;-72
2024/01/21 09:58:33;;;;;;;4.18;2.28;;;3.50;99.90;;;;;;5013378;28;20212;-73
2024/01/21 10:00:59;;;;;;;5.72;2.63;;;3.50;99.90;;;;;;5008106;28;20033;-74
2024/01/21 10:03:25;;;;;;;4.90;2.10;;;3.50;99.90;;;;;;5012093;28;20045;-73
2024/01/21 10:05:50;;;;;;;4.72;2.70;;;3.60;99.90;;;;;;5012778;28;20443;-72
2024/01/21 10:08:16;;;;;;;6.05;2.20;;;3.60;99.90;;;;;;5013667;28;20561;-73
2024/01/21 10:10:44;;;;;;;5.68;2.58;;;3.60;99.90;;;;;;5016512;28;20048;-75
2024/01/21 10:13:10;;;;;;;4.90;2.40;;;3.70;99.90;;;;;;5007267;28;20050;-73
2024/01/21 10:15:36;;;;;;;7.82;3.15;;;3.70;99.90;;;;;;5006119;28;20041;-74
2024/01/21 10:18:02;;;;;;;8.13;2.60;;;3.70;99.90;;;;;;5009732;28;20037;-73
2024/01/21 10:20:28;;;;;;;7.50;3.08;;;3.70;99.90;;;;;;5016016;28;20091;-74
2024/01/21 10:23:09;;;;;;;5.25;2.20;;;3.70;99.90;;;;;;5006664;28;20087;-74
2024/01/21 10:25:35;;;;;;;6.40;2.50;;;3.70;99.90;;;;;;5012851;28;20037;-74
2024/01/21 10:28:00;;;;;;;4.47;2.38;;;3.80;99.90;;;;;;5009991;28;20505;-75
2024/01/21 10:30:26;;;;;;;6.75;2.33;;;3.80;99.90;;;;;;5005554;28;20640;-74
2024/01/21 10:32:51;;;;;;;6.40;2.38;;;3.80;99.90;;;;;;5004010;28;20030;-73
2024/01/21 10:35:17;;;;;;;5.95;2.85;;;3.90;99.90;;;;;;5005029;28;20034;-73
2024/01/21 10:37:42;;;;;;;6.15;2.40;;;3.90;99.90;;;;;;5007933;28;20053;-74
2024/01/21 10:40:11;;;;;;;7.35;2.55;;;3.90;99.90;;;;;;5009909;28;20037;-74
2024/01/21 10:42:38;;;;;;;13.05;2.95;;;3.90;99.90;;;;;;5011933;28;20029;-74
2024/01/21 10:45:04;;;;;;;8.98;3.00;;;3.90;99.90;;;;;;5012581;28;20152;-74
2024/01/21 10:47:33;;;;;;;4.45;2.03;;;3.90;99.90;;;;;;5019117;28;20026;-73
2024/01/21 10:49:59;;;;;;;5.50;2.30;;;4.00;99.90;;;;;;5012172;28;20041;-74
2024/01/21 10:52:25;;;;;;;6.30;3.03;;;4.00;99.90;;;;;;5013122;28;20041;-72
2024/01/21 10:54:53;;;;;;;5.63;2.90;;;4.10;99.90;;;;;;5009402;28;20042;-73
2024/01/21 10:57:18;;;;;;;5.50;2.50;;;4.10;99.90;;;;;;5013805;28;20045;-73
2024/01/21 10:59:45;;;;;;;6.03;3.05;;;4.10;99.90;;;;;;5003012;28;20096;-73
2024/01/21 11:02:12;;;;;;;7.05;2.83;;;4.10;99.90;;;;;;5011973;28;20025;-72
2024/01/21 11:04:38;;;;;;;5.40;2.90;;;4.10;99.90;;;;;;5014296;28;20401;-73
2024/01/21 11:07:05;;;;;;;6.32;2.58;;;4.10;99.90;;;;;;5015511;28;20030;-73
2024/01/21 11:09:33;;;;;;;6.25;2.70;;;4.10;99.90;;;;;;5015871;28;20041;-73
2024/01/21 11:12:01;;;;;;;7.90;2.42;;;4.10;99.90;;;;;;5002758;28;20593;-72
2024/01/21 11:14:34;;;;;;;7.28;3.13;;;4.20;99.90;;;;;;5003790;28;20498;-73
2024/01/21 11:17:02;;;;;;;8.35;2.78;;;4.20;99.90;;;;;;5009825;28;20041;-74
2024/01/21 11:19:36;;;;;;;7.97;2.72;;;4.20;99.90;;;;;;5016174;28;20571;-72
2024/01/21 11:22:03;;;;;;;6.30;2.60;;;4.30;99.90;;;;;;5012089;28;20033;-73
2024/01/21 11:24:31;;;;;;;6.05;2.53;;;4.30;99.90;;;;;;5018136;28;20485;-73
2024/01/21 11:26:58;;;;;;;6.32;2.38;;;4.30;99.90;;;;;;5006112;28;20033;-73
2024/01/21 11:29:28;;;;;;;7.30;2.47;;;4.40;99.90;;;;;;5014385;28;20021;-73
2024/01/21 11:31:59;;;;;;;8.75;2.90;;;4.40;99.90;;;;;;5012454;28;20663;-72
2024/01/21 11:34:27;;;;;;;6.05;2.90;;;4.40;99.90;;;;;;5013630;28;20546;-72
2024/01/21 11:36:52;;;;;;;9.43;3.92;;;4.50;99.90;;;;;;5006587;28;20172;-74
2024/01/21 11:39:20;;;;;;;5.85;2.80;;;4.50;99.90;;;;;;5007565;28;20771;-73
2024/01/21 11:41:46;;;;;;;4.57;2.45;;;4.40;99.90;;;;;;5007304;28;20088;-73
2024/01/21 11:44:14;;;;;;;9.18;3.17;;;4.40;99.90;;;;;;5010813;28;20119;-72
2024/01/21 11:46:42;;;;;;;6.22;2.53;;;4.50;99.90;;;;;;5008627;28;20038;-73
2024/01/21 11:49:11;;;;;;;7.25;3.30;;;4.60;99.90;;;;;;5006905;28;20030;-71
2024/01/21 11:51:38;;;;;;;13.25;3.53;;;4.50;99.90;;;;;;5013119;28;20053;-72
2024/01/21 11:54:04;;;;;;;7.18;3.25;;;4.60;99.90;;;;;;5007754;28;20037;-74
2024/01/21 11:56:30;;;;;;;7.57;2.53;;;4.60;99.90;;;;;;5015276;28;20125;-73
2024/01/21 11:58:57;;;;;;;7.72;2.33;;;4.60;99.90;;;;;;5006393;28;20172;-72
2024/01/21 12:01:24;;;;;;;6.00;3.05;;;4.60;99.90;;;;;;5007067;28;20037;-73
2024/01/21 12:03:49;;;;;;;7.07;3.03;;;4.60;99.90;;;;;;5014128;28;20069;-74
2024/01/21 12:06:16;;;;;;;6.63;2.33;;;4.60;99.90;;;;;;5006014;28;20064;-73
2024/01/21 12:08:45;;;;;;;3.95;2.20;;;4.60;99.90;;;;;;5015822;28;20342;-72
2024/01/21 12:11:13;;;;;;;5.18;2.70;;;4.60;99.90;;;;;;5011112;28;20045;-73
2024/01/21 12:13:43;;;;;;;5.88;2.85;;;4.70;99.90;;;;;;5011766;28;20037;-73
2024/01/21 12:16:12;;;;;;;11.20;2.88;;;4.70;99.90;;;;;;5011000;28;20073;-72
2024/01/21 12:18:41;;;;;;;7.38;2.70;;;4.70;99.90;;;;;;5008475;28;20029;-72
2024/01/21 12:21:11;;;;;;;7.80;2.75;;;4.80;99.90;;;;;;5019037;28;20087;-73
2024/01/21 12:23:42;;;;;;;6.57;3.65;;;4.80;99.90;;;;;;5011034;28;20096;-73
2024/01/21 12:26:08;;;;;;;7.80;3.33;;;4.80;99.90;;;;;;5022572;28;20041;-73
2024/01/21 12:28:34;;;;;;;10.00;3.38;;;4.90;99.90;;;;;;5009664;28;20041;-72
2024/01/21 12:31:00;;;;;;;11.07;3.30;;;4.90;99.90;;;;;;5004479;28;20049;-73
2024/01/21 12:33:26;;;;;;;16.85;2.78;;;4.90;99.90;;;;;;5007766;28;20422;-72
2024/01/21 12:35:52;;;;;;;8.70;2.83;;;4.90;99.90;;;;;;5007595;28;20070;-73
2024/01/21 12:38:18;;;;;;;9.90;4.15;;;4.90;99.90;;;;;;5004529;28;20037;-72
2024/01/21 12:40:44;;;;;;;10.27;3.05;;;5.00;99.90;;;;;;5005822;28;20026;-72
2024/01/21 12:43:10;;;;;;;8.98;3.53;;;5.00;99.90;;;;;;5009945;28;20151;-72
2024/01/21 12:45:36;;;;;;;7.85;2.75;;;5.00;99.90;;;;;;5013676;28;20025;-72
2024/01/21 12:48:03;;;;;;;5.45;3.00;;;5.00;99.90;;;;;;5004528;28;20042;-73
2024/01/21 12:50:29;;;;;;;13.35;4.25;;;5.00;99.90;;;;;;5014038;28;20392;-72
2024/01/21 12:52:56;;;;;;;10.43;3.30;;;5.00;99.90;;;;;;5003433;28;20038;-72